Time;durP1;ratioP1;P1;durP2;ratioP2;P2;SDS_P1;SDS_P2;PMS_P1;PMS_P2;Temp;Humidity;BMP_temperature;BMP_pressure;BME280_temperature;BME280_humidity;BME280_pressure;Samples;Min_cycle;Max_cycle;Signal;HPM_P1;HPM_P2
2022/11/12 00:00:01;;;;;;;11.97;8.30;;;;;;;10.41;61.18;100379.22;6908189;28;20252;-85
2022/11/12 00:03:25;;;;;;;11.90;8.17;;;;;;;10.06;60.74;100347.13;6911717;28;20232;-84
2022/11/12 00:06:47;;;;;;;12.07;8.13;;;;;;;10.11;60.73;100365.50;6911761;28;20220;-83
2022/11/12 00:10:12;;;;;;;10.57;8.63;;;;;;;10.21;61.03;100377.81;6913267;28;20216;-83
2022/11/12 00:13:39;;;;;;;12.40;8.50;;;;;;;10.21;60.67;100363.50;6912012;28;20234;-86
2022/11/12 00:17:03;;;;;;;11.23;9.37;;;;;;;10.34;60.38;100372.78;6910510;28;20200;-83
2022/11/12 00:20:26;;;;;;;11.37;9.03;;;;;;;9.94;61.43;100377.19;6912484;28;20216;-83
2022/11/12 00:23:48;;;;;;;10.90;8.47;;;;;;;10.04;61.48;100380.63;6911223;28;20239;-86
2022/11/12 00:27:10;;;;;;;10.23;8.77;;;;;;;10.03;60.94;100385.16;6911493;28;20220;-85
2022/11/12 00:30:32;;;;;;;13.77;8.60;;;;;;;10.09;61.25;100370.22;6911669;28;20208;-84
2022/11/12 00:33:55;;;;;;;9.47;7.97;;;;;;;10.13;61.21;100383.19;6910272;28;20229;-87
2022/11/12 00:37:19;;;;;;;12.17;9.20;;;;;;;9.74;61.44;100316.50;6908258;28;20244;-82
2022/11/12 00:40:41;;;;;;;14.17;8.33;;;;;;;9.99;61.34;100362.19;6906971;28;20727;-83
2022/11/12 00:44:03;;;;;;;15.83;9.50;;;;;;;9.47;61.46;100314.03;6905800;28;20283;-83
2022/11/12 00:47:25;;;;;;;11.63;9.57;;;;;;;10.04;61.58;100359.91;6901815;28;20211;-83
2022/11/12 00:50:46;;;;;;;10.77;9.30;;;;;;;10.11;60.83;100347.44;6905023;28;20208;-83
2022/11/12 00:54:09;;;;;;;11.53;9.37;;;;;;;9.96;62.17;100361.69;6904236;28;20247;-85
2022/11/12 00:57:31;;;;;;;11.43;8.97;;;;;;;10.14;61.43;100354.38;6904391;28;20204;-82
2022/11/12 01:00:52;;;;;;;14.90;10.27;;;;;;;9.98;61.16;100355.13;6903623;28;20276;-82
2022/11/12 01:04:14;;;;;;;14.60;9.43;;;;;;;10.14;61.71;100375.94;6902844;28;20232;-83
2022/11/12 01:07:38;;;;;;;15.00;9.70;;;;;;;10.16;61.23;100369.38;6905071;28;20208;-83
2022/11/12 01:11:12;;;;;;;13.20;10.27;;;;;;;10.39;60.91;100367.72;6901540;28;20211;-85
2022/11/12 01:14:33;;;;;;;10.53;9.33;;;;;;;10.46;60.76;100349.88;6904455;28;20228;-83
2022/11/12 01:17:58;;;;;;;12.70;9.10;;;;;;;10.57;60.46;100346.84;6904338;28;20669;-83
2022/11/12 01:21:21;;;;;;;10.27;9.20;;;;;;;10.53;60.49;100353.63;6902892;28;20579;-82
2022/11/12 01:24:42;;;;;;;12.00;9.00;;;;;;;10.41;60.54;100354.09;6902032;28;20295;-83
2022/11/12 01:28:05;;;;;;;11.20;9.20;;;;;;;10.42;60.22;100340.44;6904060;28;20244;-83
2022/11/12 01:31:29;;;;;;;11.30;8.67;;;;;;;10.47;60.11;100353.44;6902956;28;20221;-83
2022/11/12 01:34:52;;;;;;;13.97;9.67;;;;;;;9.67;61.35;100339.69;6901660;28;20251;-83
2022/11/12 01:38:13;;;;;;;13.67;10.07;;;;;;;9.73;62.05;100355.19;6903523;28;20681;-83
2022/11/12 01:41:37;;;;;;;10.87;9.50;;;;;;;9.76;61.77;100339.59;6904231;28;20211;-84
2022/11/12 01:45:00;;;;;;;12.60;9.30;;;;;;;9.99;61.23;100335.25;6902960;28;20252;-82
2022/11/12 01:48:26;;;;;;;14.43;10.10;;;;;;;9.92;61.11;100319.94;6904373;28;20209;-85
2022/11/12 01:51:50;;;;;;;16.10;10.60;;;;;;;9.56;61.45;100262.75;6903711;28;20222;-83
2022/11/12 01:55:14;;;;;;;12.53;9.97;;;;;;;9.92;61.60;100333.41;6901543;28;20227;-83
2022/11/12 01:58:36;;;;;;;13.77;10.40;;;;;;;9.94;61.12;100342.16;6899879;28;20239;-82
2022/11/12 02:01:59;;;;;;;14.90;11.43;;;;;;;9.70;61.53;100332.13;6897554;28;20208;-82
2022/11/12 02:05:22;;;;;;;14.00;10.63;;;;;;;9.58;61.54;100302.97;6899237;28;20360;-82
2022/11/12 02:08:48;;;;;;;13.27;10.03;;;;;;;9.47;61.82;100327.50;6902900;28;20255;-83
2022/11/12 02:13:56;;;;;;;12.50;10.10;;;;;;;9.23;63.10;100304.00;6903060;28;20299;-82
2022/11/12 02:15:51;;;;;;;14.27;10.23;;;;;;;9.74;61.84;100305.75;6900453;28;20228;-82
2022/11/12 02:19:16;;;;;;;11.70;8.97;;;;;;;9.88;61.03;100297.88;6899912;28;20237;-82
2022/11/12 02:22:39;;;;;;;14.03;9.63;;;;;;;9.91;60.92;100319.09;6901791;28;20213;-82
2022/11/12 02:26:01;;;;;;;13.27;10.10;;;;;;;9.77;61.16;100300.00;6903731;28;20231;-82
2022/11/12 02:29:22;;;;;;;11.83;8.97;;;;;;;9.91;60.52;100323.63;6904396;28;20210;-82
2022/11/12 02:32:44;;;;;;;11.90;9.70;;;;;;;10.13;60.68;100305.03;6904316;28;20688;-83
2022/11/12 02:36:06;;;;;;;13.20;9.07;;;;;;;10.06;60.27;100306.69;6902914;28;20218;-82
2022/11/12 02:39:29;;;;;;;11.60;9.43;;;;;;;10.11;60.50;100307.03;6908074;28;20266;-82
2022/11/12 02:42:50;;;;;;;11.67;9.87;;;;;;;10.00;60.83;100303.78;6909041;28;20214;-82
2022/11/12 02:46:12;;;;;;;11.23;8.63;;;;;;;10.08;59.98;100296.59;6911549;28;20247;-82
2022/11/12 02:49:34;;;;;;;14.43;9.80;;;;;;;10.07;60.45;100316.47;6911587;28;20209;-82
2022/11/12 02:53:01;;;;;;;11.27;8.83;;;;;;;10.10;59.85;100313.44;6909644;28;20208;-82
2022/11/12 02:56:24;;;;;;;12.10;9.33;;;;;;;9.73;60.33;100272.56;6910779;28;20239;-82
2022/11/12 02:59:46;;;;;;;11.17;9.07;;;;;;;9.86;61.08;100297.16;6910379;28;20295;-81
2022/11/12 03:03:08;;;;;;;10.07;8.77;;;;;;;10.00;60.77;100311.88;6909028;28;20233;-82
2022/11/12 03:06:29;;;;;;;9.70;8.67;;;;;;;9.98;61.21;100316.59;6911389;28;20682;-80
2022/11/12 03:09:51;;;;;;;10.10;8.40;;;;;;;10.07;61.05;100324.56;6911658;28;20203;-81
2022/11/12 03:13:15;;;;;;;11.60;9.60;;;;;;;10.15;61.09;100307.56;6910914;28;20237;-81
2022/11/12 03:16:37;;;;;;;10.07;8.40;;;;;;;10.11;61.37;100296.25;6909011;28;20223;-81
2022/11/12 03:19:58;;;;;;;10.13;8.40;;;;;;;10.17;60.84;100308.22;6907208;28;20225;-81
2022/11/12 03:23:22;;;;;;;8.90;7.97;;;;;;;10.02;60.59;100313.38;6910194;28;20243;-81
2022/11/12 03:26:44;;;;;;;9.23;8.20;;;;;;;9.85;61.36;100287.41;6910745;28;20235;-80
2022/11/12 03:30:08;;;;;;;10.40;8.00;;;;;;;9.93;61.63;100284.72;6912010;28;20211;-81
2022/11/12 03:33:30;;;;;;;9.40;7.30;;;;;;;9.84;61.82;100296.50;6909386;28;20244;-81
2022/11/12 03:36:52;;;;;;;10.37;7.87;;;;;;;10.03;61.51;100300.78;6909759;28;20211;-80
2022/11/12 03:40:14;;;;;;;10.43;8.73;;;;;;;10.16;61.14;100295.78;6908332;28;20228;-80
2022/11/12 03:43:35;;;;;;;10.37;7.87;;;;;;;10.26;60.35;100294.59;6908420;28;20251;-80
2022/11/12 03:46:59;;;;;;;9.23;8.33;;;;;;;10.17;61.05;100294.75;6910457;28;20208;-81
2022/11/12 03:50:26;;;;;;;8.43;7.37;;;;;;;9.68;61.71;100272.22;6911534;28;20212;-82
2022/11/12 03:53:47;;;;;;;8.37;7.27;;;;;;;9.96;61.52;100294.31;6910268;28;20236;-81
2022/11/12 03:57:09;;;;;;;8.67;7.77;;;;;;;10.15;61.29;100315.66;6917441;28;20677;-81
2022/11/12 04:00:39;;;;;;;8.43;7.53;;;;;;;10.36;60.66;100314.16;6919418;28;20232;-82
2022/11/12 04:04:02;;;;;;;9.13;8.20;;;;;;;10.52;60.35;100307.94;6901336;28;20238;-84
2022/11/12 04:11:05;;;;;;;8.80;7.83;;;;;;;9.68;60.51;100245.28;6910972;28;20201;-83
2022/11/12 04:14:26;;;;;;;8.97;8.07;;;;;;;10.06;60.94;100304.00;6904760;28;20228;-83
2022/11/12 04:32:31;;;;;;;9.40;8.23;;;;;;;9.46;62.22;100293.50;6902946;28;20189;-83
2022/11/12 04:35:53;;;;;;;9.80;8.03;;;;;;;9.55;61.84;100301.44;6905890;28;20232;-83
2022/11/12 04:39:16;;;;;;;8.20;7.40;;;;;;;9.37;62.31;100298.00;6904757;28;20231;-82
2022/11/12 04:46:26;;;;;;;10.33;9.13;;;;;;;9.54;61.75;100280.06;6912439;28;20216;-82
2022/11/12 04:49:48;;;;;;;10.13;8.73;;;;;;;9.83;61.85;100315.53;6904209;28;20252;-82
2022/11/12 04:53:13;;;;;;;11.10;7.90;;;;;;;9.79;61.83;100323.09;6910555;28;20228;-81
2022/11/12 04:56:36;;;;;;;11.40;9.47;;;;;;;9.43;61.84;100261.50;6905098;28;20218;-82
2022/11/12 04:59:58;;;;;;;9.60;8.60;;;;;;;9.64;61.61;100297.78;6905173;28;20684;-82
2022/11/12 05:03:20;;;;;;;10.57;8.13;;;;;;;9.78;61.75;100301.69;6904628;28;20319;-82
2022/11/12 05:06:51;;;;;;;13.60;9.83;;;;;;;10.01;60.86;100321.63;6902545;28;20195;-83
2022/11/12 05:10:13;;;;;;;10.97;9.00;;;;;;;9.59;60.95;100251.66;6879070;28;20209;-83
2022/11/12 05:13:39;;;;;;;9.77;8.33;;;;;;;9.92;61.71;100325.31;6881588;28;20227;-82
2022/11/12 05:17:01;;;;;;;9.70;8.70;;;;;;;10.12;60.87;100326.75;6909210;28;20211;-84
2022/11/12 05:20:29;;;;;;;10.27;9.03;;;;;;;10.14;60.83;100304.00;6910386;28;20251;-82
2022/11/12 05:23:50;;;;;;;10.17;8.73;;;;;;;10.04;61.25;100305.19;6910246;28;20232;-83
2022/11/12 05:27:14;;;;;;;9.90;8.53;;;;;;;10.04;61.87;100310.56;6936352;28;20208;-82
2022/11/12 05:30:42;;;;;;;10.03;8.47;;;;;;;10.31;60.92;100304.88;6938659;28;20215;-82
2022/11/12 05:34:09;;;;;;;9.70;8.67;;;;;;;9.48;62.37;100280.72;6938536;28;20228;-82
2022/11/12 05:37:36;;;;;;;9.63;8.63;;;;;;;10.25;60.99;100306.38;6938045;28;20219;-82
2022/11/12 05:40:58;;;;;;;9.10;8.17;;;;;;;10.35;60.93;100315.16;6937119;28;20254;-82
2022/11/12 05:44:20;;;;;;;8.87;7.97;;;;;;;10.43;59.82;100303.53;6925020;28;20228;-82
2022/11/12 05:47:43;;;;;;;8.67;7.77;;;;;;;10.11;60.76;100303.50;6910731;28;20205;-83
2022/11/12 05:51:05;;;;;;;9.40;8.30;;;;;;;10.26;60.44;100318.00;6909332;28;20210;-82
2022/11/12 05:54:27;;;;;;;11.13;7.70;;;;;;;10.08;60.02;100293.91;6909538;28;20235;-83
2022/11/12 05:57:49;;;;;;;6.93;6.33;;;;;;;10.03;59.50;100293.53;6909396;28;20208;-82
2022/11/12 06:01:10;;;;;;;11.10;7.47;;;;;;;9.76;59.93;100311.78;6912712;28;20304;-82
2022/11/12 06:04:33;;;;;;;10.50;7.97;;;;;;;9.96;60.33;100326.66;6924127;28;20235;-82
2022/11/12 06:07:55;;;;;;;8.17;7.30;;;;;;;10.13;60.38;100318.50;6905506;28;20205;-82
2022/11/12 06:11:17;;;;;;;8.27;7.13;;;;;;;10.27;59.75;100325.09;6907664;28;20204;-81
2022/11/12 06:14:39;;;;;;;11.77;8.00;;;;;;;10.08;59.97;100331.63;6905152;28;20229;-81
2022/11/12 06:18:01;;;;;;;8.40;7.50;;;;;;;10.31;59.81;100340.78;6905838;28;20270;-81
2022/11/12 06:21:26;;;;;;;10.83;7.67;;;;;;;10.30;59.20;100340.94;6907078;28;20231;-82
2022/11/12 06:24:48;;;;;;;10.17;7.90;;;;;;;10.22;59.72;100346.31;6903358;28;20332;-82
2022/11/12 06:28:09;;;;;;;8.47;7.13;;;;;;;10.21;59.72;100348.16;6904711;28;20220;-81
2022/11/12 06:31:34;;;;;;;9.97;7.60;;;;;;;10.33;59.04;100340.59;6903366;28;20208;-82
2022/11/12 06:34:56;;;;;;;8.43;7.33;;;;;;;10.14;59.65;100330.09;6905302;28;20255;-82
2022/11/12 06:38:19;;;;;;;9.33;7.70;;;;;;;9.61;59.47;100271.19;6906992;28;20762;-82
2022/11/12 06:41:41;;;;;;;9.37;8.13;;;;;;;10.10;59.42;100347.63;6906506;28;20271;-81
2022/11/12 06:45:03;;;;;;;9.03;7.77;;;;;;;9.84;59.93;100345.00;6907949;28;20290;-82
2022/11/12 06:48:24;;;;;;;10.13;8.57;;;;;;;9.68;60.15;100352.19;6907144;28;20208;-82
2022/11/12 06:51:46;;;;;;;9.30;7.63;;;;;;;9.91;60.32;100337.94;6903377;28;20239;-80
2022/11/12 06:55:09;;;;;;;9.27;7.80;;;;;;;9.98;59.85;100332.75;6899298;28;20289;-81
2022/11/12 06:58:31;;;;;;;8.37;7.57;;;;;;;10.10;60.61;100336.84;6904119;28;20263;-81
2022/11/12 07:01:53;;;;;;;8.97;7.87;;;;;;;9.85;60.69;100340.44;6895909;28;20319;-82
2022/11/12 07:05:14;;;;;;;9.53;8.43;;;;;;;10.00;59.57;100331.59;6898437;28;20238;-80
2022/11/12 07:08:36;;;;;;;10.87;8.27;;;;;;;9.87;59.68;100331.19;6898739;28;20233;-82
2022/11/12 07:11:59;;;;;;;10.10;8.27;;;;;;;9.68;60.65;100325.25;6900226;28;20232;-80
2022/11/12 07:15:20;;;;;;;13.87;8.37;;;;;;;9.79;60.72;100341.94;6900185;28;20255;-83
2022/11/12 07:18:42;;;;;;;10.67;8.63;;;;;;;9.55;61.73;100352.63;6901362;28;20236;-78
2022/11/12 07:22:04;;;;;;;11.53;8.70;;;;;;;10.35;61.09;100325.09;6901944;28;20239;-80
2022/11/12 07:25:25;;;;;;;10.13;8.00;;;;;;;10.84;60.31;100332.19;6904715;28;20614;-83
2022/11/12 07:28:49;;;;;;;12.63;7.63;;;;;;;11.12;59.92;100338.91;6906162;28;20274;-81
2022/11/12 07:32:11;;;;;;;10.17;8.00;;;;;;;11.21;59.73;100322.50;6905755;28;20212;-80
2022/11/12 07:35:33;;;;;;;9.10;7.30;;;;;;;11.44;58.78;100320.75;6906804;28;20243;-77
2022/11/12 07:38:54;;;;;;;15.63;8.03;;;;;;;11.70;58.24;100334.03;6905570;28;20215;-78
2022/11/12 07:42:16;;;;;;;13.17;10.77;;;;;;;11.17;59.04;100272.56;6895809;28;20239;-77
2022/11/12 07:45:39;;;;;;;15.03;10.00;;;;;;;10.58;60.01;100315.34;6900548;28;20231;-77
2022/11/12 07:49:01;;;;;;;11.97;9.80;;;;;;;9.99;61.10;100243.66;6894632;28;20286;-75
2022/11/12 07:52:23;;;;;;;11.63;10.40;;;;;;;10.95;60.15;100308.41;6894287;28;20224;-75
2022/11/12 07:55:53;;;;;;;22.07;14.10;;;;;;;11.61;58.74;100327.81;6894207;28;20365;-76
2022/11/12 07:59:14;;;;;;;11.23;7.43;;;;;;;11.91;58.22;100299.13;6895631;28;20586;-76
2022/11/12 08:02:37;;;;;;;10.07;7.03;;;;;;;12.31;57.53;100323.22;6894216;28;20323;-76
2022/11/12 08:05:59;;;;;;;8.10;6.13;;;;;;;12.31;57.26;100323.22;6894905;28;20355;-76
2022/11/12 08:09:21;;;;;;;8.63;6.90;;;;;;;12.54;56.50;100313.25;6894702;28;20479;-76
2022/11/12 08:12:42;;;;;;;6.27;5.67;;;;;;;12.45;56.36;100309.75;6894304;28;20354;-76
2022/11/12 08:16:04;;;;;;;7.30;5.60;;;;;;;14.78;52.51;100311.38;6894255;28;20296;-76
2022/11/12 08:19:27;;;;;;;6.23;5.33;;;;;;;17.59;44.37;100308.59;6894120;28;20351;-76
2022/11/12 08:22:49;;;;;;;7.27;5.77;;;;;;;18.95;40.16;100301.59;6893678;28;20274;-76
2022/11/12 08:26:13;;;;;;;6.53;5.83;;;;;;;19.00;40.15;100312.69;6894369;28;20214;-77
2022/11/12 08:29:34;;;;;;;6.23;5.00;;;;;;;19.52;38.31;100302.13;6895087;28;20902;-77
2022/11/12 08:32:57;;;;;;;6.83;5.23;;;;;;;18.84;38.55;100272.25;6892750;28;20285;-77
2022/11/12 08:36:20;;;;;;;8.63;6.27;;;;;;;18.77;39.95;100301.53;6893105;28;20208;-77
2022/11/12 08:39:41;;;;;;;6.70;5.87;;;;;;;18.53;39.20;100294.13;6894066;28;20214;-77
2022/11/12 08:43:05;;;;;;;9.33;5.80;;;;;;;18.02;42.12;100293.31;6893594;28;20346;-77
2022/11/12 08:46:26;;;;;;;8.53;5.90;;;;;;;17.40;43.32;100313.03;6893245;28;20300;-77
2022/11/12 08:49:48;;;;;;;7.17;4.93;;;;;;;16.86;44.66;100312.41;6893659;28;20206;-76
2022/11/12 08:53:12;;;;;;;6.90;5.43;;;;;;;16.12;46.12;100308.06;6891799;28;20312;-76
2022/11/12 08:56:38;;;;;;;6.20;5.50;;;;;;;15.79;46.60;100303.50;6867317;28;20298;-78
2022/11/12 09:00:00;;;;;;;6.37;5.70;;;;;;;15.52;47.37;100313.41;6868273;28;20233;-76
2022/11/12 09:03:24;;;;;;;7.00;5.63;;;;;;;15.27;48.67;100304.00;6866570;28;20602;-78
2022/11/12 09:06:46;;;;;;;5.90;5.30;;;;;;;15.61;48.02;100301.34;6871198;28;20274;-78
2022/11/12 09:10:09;;;;;;;6.93;5.80;;;;;;;15.05;49.95;100301.56;6894964;28;20287;-79
2022/11/12 09:13:31;;;;;;;7.17;5.67;;;;;;;15.30;49.90;100281.03;6894251;28;20263;-77
2022/11/12 09:16:53;;;;;;;5.53;5.00;;;;;;;14.85;50.38;100311.41;6890476;28;20221;-77
2022/11/12 09:20:15;;;;;;;5.83;5.17;;;;;;;15.04;50.18;100299.88;6895044;28;20312;-76
2022/11/12 09:23:37;;;;;;;8.13;5.60;;;;;;;14.69;51.62;100288.09;6892383;28;20319;-78
2022/11/12 09:26:59;;;;;;;7.10;5.60;;;;;;;15.14;51.46;100293.06;6894067;28;20633;-76
2022/11/12 09:30:21;;;;;;;5.83;5.00;;;;;;;15.48;49.28;100282.22;6894131;28;20307;-75
2022/11/12 09:33:43;;;;;;;6.33;4.87;;;;;;;15.63;49.14;100273.94;6893380;28;20294;-75
2022/11/12 09:37:04;;;;;;;5.77;5.23;;;;;;;15.57;48.79;100289.16;6893077;28;20303;-76
2022/11/12 09:40:40;;;;;;;5.40;4.87;;;;;;;15.13;49.39;100279.66;6902055;28;20356;-77
2022/11/12 09:44:04;;;;;;;6.67;4.70;;;;;;;15.34;49.46;100293.22;6893614;28;20243;-78
2022/11/12 09:47:29;;;;;;;5.63;4.93;;;;;;;15.77;48.33;100289.28;6891776;28;20220;-77
2022/11/12 09:50:55;;;;;;;6.20;5.50;;;;;;;15.79;47.82;100266.28;6896572;28;20688;-77
2022/11/12 09:54:22;;;;;;;5.33;4.83;;;;;;;15.93;47.99;100287.03;6896501;28;20232;-77
2022/11/12 09:57:44;;;;;;;6.13;5.30;;;;;;;15.72;48.25;100284.44;6892552;28;20196;-78
2022/11/12 10:01:13;;;;;;;6.10;5.20;;;;;;;15.53;48.39;100277.03;6892871;28;20320;-77
2022/11/12 10:04:54;;;;;;;5.00;4.60;;;;;;;15.34;48.90;100274.19;6893038;28;20706;-77
2022/11/12 10:08:38;;;;;;;5.53;4.83;;;;;;;15.68;48.30;100268.75;6875941;28;20300;-78
2022/11/12 10:19:41;;;;;;;6.73;5.10;;;;;;;16.37;46.88;100272.94;6893006;28;20185;-76
2022/11/12 10:23:15;;;;;;;5.80;5.20;;;;;;;16.63;46.52;100265.66;6892492;28;20699;-78
2022/11/12 10:26:37;;;;;;;5.43;4.93;;;;;;;16.50;45.55;100251.19;6893038;28;20265;-77
2022/11/12 10:30:01;;;;;;;5.70;5.10;;;;;;;17.05;45.43;100264.41;6893034;28;20366;-77
2022/11/12 10:33:23;;;;;;;6.53;5.57;;;;;;;16.90;45.37;100271.97;6892193;28;20284;-76
2022/11/12 10:36:49;;;;;;;5.70;5.13;;;;;;;16.98;45.97;100266.31;6892397;28;20357;-77
2022/11/12 10:40:28;;;;;;;6.53;4.90;;;;;;;17.13;45.19;100259.59;6892303;28;20195;-78
2022/11/12 10:43:55;;;;;;;6.33;5.13;;;;;;;17.49;44.51;100256.38;6891813;28;20712;-78
2022/11/12 10:47:27;;;;;;;6.00;5.40;;;;;;;16.58;46.83;100248.28;6892290;28;20270;-77
2022/11/12 10:50:49;;;;;;;6.20;5.10;;;;;;;17.72;44.18;100245.81;6892424;28;20214;-78
2022/11/12 10:54:31;;;;;;;7.60;5.27;;;;;;;17.43;45.55;100244.44;6892672;28;20238;-78
2022/11/12 10:58:19;;;;;;;6.00;4.80;;;;;;;17.93;44.21;100234.59;6893243;28;20345;-78
2022/11/12 11:01:41;;;;;;;5.23;4.73;;;;;;;18.07;42.64;100189.78;6879884;28;20226;-76
2022/11/12 11:05:27;;;;;;;6.33;4.70;;;;;;;18.34;43.75;100229.56;6897006;28;20265;-76
2022/11/12 11:08:51;;;;;;;6.07;4.93;;;;;;;18.46;43.11;100231.34;6897568;28;20314;-76
2022/11/12 11:12:24;;;;;;;6.60;5.40;;;;;;;18.36;43.97;100221.97;6897954;28;20299;-75
2022/11/12 11:15:58;;;;;;;5.27;4.77;;;;;;;18.14;43.89;100220.59;6897364;28;20282;-76
2022/11/12 11:19:20;;;;;;;5.33;4.83;;;;;;;18.43;43.64;100220.88;6898330;28;20297;-76
2022/11/12 11:22:44;;;;;;;6.03;5.00;;;;;;;18.20;43.17;100223.31;6896673;28;20274;-76
2022/11/12 11:26:15;;;;;;;6.77;5.00;;;;;;;17.59;44.73;100213.97;6897275;28;20316;-76
2022/11/12 11:30:07;;;;;;;5.83;4.80;;;;;;;17.62;45.19;100208.06;6897161;28;20260;-76
2022/11/12 11:33:36;;;;;;;5.77;5.20;;;;;;;18.11;45.28;100219.16;6894947;28;20231;-76
2022/11/12 11:37:01;;;;;;;7.00;5.17;;;;;;;16.51;46.75;100226.47;6896647;28;20229;-77
2022/11/12 11:40:26;;;;;;;7.10;5.03;;;;;;;17.65;46.09;100213.13;6897777;28;20262;-76
2022/11/12 11:43:57;;;;;;;5.73;5.23;;;;;;;18.16;44.06;100202.94;6897030;28;20254;-76
2022/11/12 11:47:31;;;;;;;5.10;4.63;;;;;;;18.65;43.81;100191.28;6896956;28;20685;-76
2022/11/12 11:50:59;;;;;;;6.17;4.57;;;;;;;18.96;42.74;100196.66;6897257;28;20251;-77
2022/11/12 11:54:43;;;;;;;5.93;5.00;;;;;;;17.85;44.73;100183.84;6896331;28;20310;-76
2022/11/12 11:58:13;;;;;;;5.90;4.77;;;;;;;18.50;44.52;100168.91;6897180;28;20200;-76
2022/11/12 12:01:40;;;;;;;6.10;5.03;;;;;;;17.80;45.60;100183.66;6896910;28;20352;-76
2022/11/12 12:05:12;;;;;;;7.63;5.40;;;;;;;18.34;45.74;100181.22;6896515;28;20764;-76
2022/11/12 12:08:46;;;;;;;5.73;5.13;;;;;;;19.08;43.98;100179.28;6897004;28;20368;-76
2022/11/12 12:12:15;;;;;;;5.63;4.60;;;;;;;19.32;42.65;100167.47;6896147;28;20289;-77
2022/11/12 12:15:47;;;;;;;7.13;5.27;;;;;;;18.97;43.77;100177.31;6895318;28;20292;-76
2022/11/12 12:19:16;;;;;;;6.80;4.73;;;;;;;19.27;42.66;100142.72;6896116;28;20239;-76
2022/11/12 12:22:43;;;;;;;5.17;4.67;;;;;;;19.37;42.31;100153.13;6895072;28;20220;-76
2022/11/12 12:26:10;;;;;;;5.70;4.40;;;;;;;19.47;42.43;100159.72;6895204;28;20286;-76
2022/11/12 12:29:34;;;;;;;6.77;5.50;;;;;;;19.27;43.10;100147.38;6895135;28;20228;-77
2022/11/12 12:33:00;;;;;;;6.50;5.10;;;;;;;19.49;43.54;100162.22;6894869;28;20674;-76
2022/11/12 12:36:25;;;;;;;6.13;5.13;;;;;;;19.28;43.19;100138.09;6894921;28;20243;-75
2022/11/12 12:39:53;;;;;;;7.30;5.70;;;;;;;19.28;43.14;100149.84;6895005;28;20756;-77
2022/11/12 12:43:19;;;;;;;6.83;5.50;;;;;;;19.29;44.41;100153.44;6894549;28;20265;-82
2022/11/12 12:46:43;;;;;;;6.40;5.00;;;;;;;19.01;44.06;100151.19;6895087;28;20204;-76
2022/11/12 12:50:10;;;;;;;5.90;5.27;;;;;;;18.86;44.58;100128.03;6895425;28;20685;-78
2022/11/12 12:53:33;;;;;;;7.03;4.80;;;;;;;18.97;44.89;100143.66;6894452;28;20359;-76
2022/11/12 12:56:56;;;;;;;6.63;5.33;;;;;;;19.34;44.05;100134.44;6894315;28;20297;-78
2022/11/12 13:00:41;;;;;;;82.03;31.10;;;;;;;18.87;45.26;100122.31;6895239;28;20232;-77
2022/11/12 13:04:04;;;;;;;8.03;5.50;;;;;;;18.75;45.50;100131.50;6873113;28;20318;-76
2022/11/12 13:07:40;;;;;;;13.37;9.50;;;;;;;18.78;45.69;100128.28;6894697;28;20601;-76
2022/11/12 13:11:01;;;;;;;5.77;5.23;;;;;;;18.22;46.47;100125.63;6894134;28;20280;-76
2022/11/12 13:18:57;;;;;;;7.27;6.00;;;;;;;19.06;45.48;100095.81;7115281;27;20557;-76
2022/11/12 13:22:49;;;;;;;6.30;5.70;;;;;;;18.98;45.23;100113.38;7116321;27;20216;-76
2022/11/12 13:26:50;;;;;;;6.97;5.10;;;;;;;18.63;46.03;100116.91;7115949;27;20207;-76
2022/11/12 13:30:50;;;;;;;7.43;5.37;;;;;;;18.71;46.16;100101.06;7115966;27;20202;-76
2022/11/12 13:34:18;;;;;;;5.77;5.27;;;;;;;18.69;46.27;100116.00;7115941;27;20205;-76
2022/11/12 13:37:43;;;;;;;5.87;5.27;;;;;;;18.49;46.58;100124.38;7115684;27;20213;-76
2022/11/12 13:41:09;;;;;;;10.30;5.57;;;;;;;18.81;46.58;100097.81;7115899;27;20207;-76
2022/11/12 13:44:31;;;;;;;7.43;5.60;;;;;;;19.04;46.40;100111.63;7115364;27;20210;-76
2022/11/12 13:47:53;;;;;;;9.00;5.50;;;;;;;18.89;46.02;100113.88;7115482;27;20199;-76
2022/11/12 13:51:18;;;;;;;8.50;5.47;;;;;;;18.64;46.55;100069.41;7115812;27;20203;-77
2022/11/12 13:54:40;;;;;;;7.00;5.80;;;;;;;18.37;46.81;100024.28;7115800;27;20201;-76
2022/11/12 13:58:02;;;;;;;7.67;5.93;;;;;;;18.34;46.35;100041.94;7114991;27;20222;-76
2022/11/12 14:01:43;;;;;;;7.00;6.00;;;;;;;17.56;47.89;100015.28;7115795;27;20212;-76
2022/11/12 14:05:13;;;;;;;8.40;6.07;;;;;;;18.21;47.78;100052.16;7114763;27;20230;-76
2022/11/12 14:08:50;;;;;;;6.20;5.53;;;;;;;18.75;47.43;100087.78;7115269;27;20227;-75
2022/11/12 14:12:22;;;;;;;7.30;6.20;;;;;;;18.85;47.26;100082.59;7114987;27;20202;-75
2022/11/12 14:15:59;;;;;;;7.07;5.93;;;;;;;18.64;47.56;100099.44;7114249;27;20371;-76
2022/11/12 14:19:31;;;;;;;9.17;7.43;;;;;;;18.38;48.89;100099.69;7115350;27;20210;-76
2022/11/12 14:22:54;;;;;;;9.53;7.27;;;;;;;17.94;49.84;100103.38;7114674;27;20634;-76
2022/11/12 14:26:35;;;;;;;8.37;6.70;;;;;;;18.03;49.96;100103.94;7114767;27;20197;-76
2022/11/12 14:30:22;;;;;;;7.87;6.77;;;;;;;17.80;49.48;100055.41;7095307;27;20201;-76
2022/11/12 14:33:43;;;;;;;8.07;6.20;;;;;;;18.34;49.03;100090.28;7079830;27;20207;-76
2022/11/12 14:37:05;;;;;;;7.43;6.60;;;;;;;17.44;49.34;99978.88;7095094;27;20241;-76
2022/11/12 14:40:30;;;;;;;7.80;6.97;;;;;;;18.23;49.15;100067.22;7095536;27;20221;-76
2022/11/12 14:43:55;;;;;;;7.40;6.47;;;;;;;18.23;49.41;100075.41;7095758;27;20205;-76
2022/11/12 14:47:18;;;;;;;8.73;6.70;;;;;;;18.02;49.16;100021.22;7094622;27;20201;-76
2022/11/12 14:50:40;;;;;;;10.80;6.87;;;;;;;17.86;49.78;100040.06;7094928;27;20214;-76
2022/11/12 14:54:03;;;;;;;7.40;6.63;;;;;;;17.96;49.82;100052.16;7095188;27;20233;-76
2022/11/12 14:57:26;;;;;;;8.57;6.87;;;;;;;17.60;50.04;100002.06;7094434;27;20233;-76
2022/11/12 15:00:51;;;;;;;7.60;6.80;;;;;;;18.08;49.94;100069.47;7094850;27;20209;-76
2022/11/12 15:04:18;;;;;;;7.80;6.80;;;;;;;17.93;50.54;100077.13;7094717;27;20230;-76
2022/11/12 15:07:51;;;;;;;7.70;6.97;;;;;;;17.55;50.51;100004.59;7092695;27;20197;-76
2022/11/12 15:11:20;;;;;;;9.33;7.00;;;;;;;17.70;50.57;100051.50;7094057;27;20210;-76
2022/11/12 15:14:42;;;;;;;8.07;7.17;;;;;;;17.48;51.85;100048.28;7094016;27;20200;-76
2022/11/12 15:18:07;;;;;;;8.43;7.17;;;;;;;17.44;51.61;100019.78;7093679;27;20233;-76
2022/11/12 15:21:29;;;;;;;10.47;7.40;;;;;;;16.71;52.81;99965.88;7094696;27;20210;-76
2022/11/12 15:24:51;;;;;;;10.17;7.00;;;;;;;16.68;53.93;100019.94;7093913;27;20212;-76
2022/11/12 15:28:14;;;;;;;11.77;7.43;;;;;;;17.09;53.57;100051.19;7091540;27;20214;-76
2022/11/12 15:31:43;;;;;;;8.17;7.13;;;;;;;16.70;53.97;100029.53;7082173;27;20226;-77
2022/11/12 15:35:20;;;;;;;7.93;7.13;;;;;;;16.95;54.00;100040.56;7093877;27;20205;-77
2022/11/12 15:38:47;;;;;;;13.03;7.43;;;;;;;16.71;53.81;100005.88;7080868;27;20255;-77
2022/11/12 15:42:15;;;;;;;8.37;7.37;;;;;;;16.59;53.92;100032.09;7093606;27;20207;-77
2022/11/12 15:45:36;;;;;;;8.33;7.30;;;;;;;15.84;54.74;100012.69;7093263;27;20196;-79
2022/11/12 15:49:00;;;;;;;10.40;7.70;;;;;;;15.91;56.24;100036.16;7081737;27;20201;-77
2022/11/12 15:52:24;;;;;;;7.83;7.03;;;;;;;16.20;55.57;100043.03;7090122;27;20256;-77
2022/11/12 15:55:46;;;;;;;9.80;8.10;;;;;;;16.14;55.22;100049.31;7068828;27;20197;-77
2022/11/12 15:59:10;;;;;;;11.33;7.70;;;;;;;16.06;55.11;100019.59;7081364;27;20203;-77
2022/11/12 16:02:32;;;;;;;13.83;7.50;;;;;;;15.82;56.22;100031.94;7092931;27;20199;-77
2022/11/12 16:05:54;;;;;;;9.00;7.60;;;;;;;15.02;56.60;99948.81;7087684;27;20233;-77
2022/11/12 16:09:17;;;;;;;9.63;8.10;;;;;;;15.40;57.00;100043.19;7063458;28;20208;-77
2022/11/12 16:12:38;;;;;;;10.47;7.90;;;;;;;14.43;58.41;99928.78;7063676;27;20204;-77
2022/11/12 16:16:01;;;;;;;10.73;8.30;;;;;;;14.93;57.91;99963.66;7087314;27;20224;-77
2022/11/12 16:19:22;;;;;;;10.00;8.63;;;;;;;15.64;56.82;100034.44;7078406;27;20205;-77
2022/11/12 16:22:44;;;;;;;13.77;8.97;;;;;;;14.76;56.88;99979.44;7076300;27;20282;-78
2022/11/12 16:26:09;;;;;;;12.10;8.20;;;;;;;14.96;57.29;100028.41;7076041;27;20199;-78